createdAt,value
2023-02-17T00:01:39.515Z,6.00
2023-02-17T00:04:07.680Z,6.00
2023-02-17T00:06:35.663Z,6.00
2023-02-17T00:09:04.352Z,5.90
2023-02-17T00:11:32.666Z,5.80
2023-02-17T00:14:01.369Z,5.80
2023-02-17T00:16:30.998Z,5.50
2023-02-17T00:34:56.978Z,5.50
2023-02-17T00:37:25.007Z,5.60
2023-02-17T00:39:53.010Z,5.60
2023-02-17T00:42:20.986Z,5.50
2023-02-17T00:44:49.100Z,5.40
2023-02-17T00:47:17.080Z,5.40
2023-02-17T00:49:45.073Z,5.40
2023-02-17T00:52:14.438Z,5.40
2023-02-17T00:54:42.524Z,5.40
2023-02-17T00:57:10.525Z,5.30
2023-02-17T00:59:38.631Z,5.20
2023-02-17T01:02:06.835Z,5.20
2023-02-17T01:04:35.000Z,5.20
2023-02-17T01:07:03.065Z,5.40
2023-02-17T01:09:32.456Z,5.40
2023-02-17T01:12:00.432Z,5.50
2023-02-17T01:14:28.484Z,5.60
2023-02-17T01:16:56.619Z,5.60
2023-02-17T01:19:24.609Z,5.50
2023-02-17T01:21:52.649Z,5.50
2023-02-17T01:24:20.678Z,5.40
2023-02-17T01:26:50.051Z,5.00
2023-02-17T01:29:18.124Z,5.00
2023-02-17T01:31:46.189Z,5.10
2023-02-17T01:34:14.582Z,5.30
2023-02-17T01:36:42.581Z,5.30
2023-02-17T01:39:14.036Z,5.30
2023-02-17T01:41:42.372Z,5.30
2023-02-17T01:44:15.985Z,5.20
2023-02-17T01:46:45.472Z,5.00
2023-02-17T01:49:23.419Z,5.10
2023-02-17T01:51:55.424Z,5.10
2023-02-17T01:54:28.166Z,5.10
2023-02-17T01:56:58.680Z,5.10
2023-02-17T01:59:29.514Z,5.00
2023-02-17T02:02:01.926Z,5.00
2023-02-17T02:04:33.829Z,5.10
2023-02-17T02:07:02.021Z,5.10
2023-02-17T02:09:36.872Z,5.10
2023-02-17T02:12:16.942Z,5.00
2023-02-17T02:14:46.520Z,5.00
2023-02-17T02:17:25.123Z,5.00
2023-02-17T02:20:24.206Z,4.80
2023-02-17T02:23:33.042Z,4.90
2023-02-17T02:26:27.910Z,5.00
2023-02-17T02:29:22.285Z,5.00
2023-02-17T02:32:07.288Z,4.90
2023-02-17T02:34:42.233Z,4.80
2023-02-17T02:37:15.047Z,4.80
2023-02-17T02:39:47.771Z,4.70
2023-02-17T02:42:18.088Z,4.70
2023-02-17T02:44:46.139Z,4.60
2023-02-17T02:47:46.641Z,4.70
2023-02-17T02:50:19.254Z,4.70
2023-02-17T02:53:09.594Z,4.70
2023-02-17T02:55:52.719Z,4.80
2023-02-17T02:58:23.577Z,4.80
2023-02-17T03:01:00.401Z,4.90
2023-02-17T03:03:36.934Z,4.80
2023-02-17T03:06:11.297Z,4.70
2023-02-17T03:08:43.015Z,4.70
2023-02-17T03:11:11.471Z,4.80
2023-02-17T03:13:41.309Z,4.70
2023-02-17T03:16:12.162Z,4.70
2023-02-17T03:18:40.143Z,4.60
2023-02-17T03:21:15.657Z,4.70
2023-02-17T03:23:43.989Z,4.60
2023-02-17T03:26:12.055Z,4.60
2023-02-17T03:28:40.016Z,4.60
2023-02-17T03:31:08.077Z,4.70
2023-02-17T03:33:36.063Z,4.70
2023-02-17T03:36:04.317Z,4.80
2023-02-17T03:38:33.974Z,4.80
2023-02-17T03:41:01.946Z,4.80
2023-02-17T03:43:29.963Z,4.80
2023-02-17T03:45:58.068Z,4.80
2023-02-17T03:48:26.051Z,4.80
2023-02-17T03:50:54.078Z,4.70
2023-02-17T03:53:22.068Z,4.70
2023-02-17T03:55:51.463Z,4.70
2023-02-17T03:58:19.459Z,4.70
2023-02-17T04:00:47.478Z,4.70
2023-02-17T04:03:15.477Z,4.70
2023-02-17T04:05:48.094Z,4.60
2023-02-17T04:08:16.285Z,4.60
2023-02-17T04:10:45.135Z,4.60
2023-02-17T04:13:14.692Z,4.40
2023-02-17T04:15:42.840Z,4.50
2023-02-17T04:18:10.785Z,4.50
2023-02-17T04:20:40.823Z,4.60
2023-02-17T04:23:09.058Z,4.60
2023-02-17T04:25:37.301Z,4.60
2023-02-17T04:28:06.277Z,4.60
2023-02-17T04:30:36.317Z,4.60
2023-02-17T04:33:06.227Z,4.50
2023-02-17T04:35:34.238Z,4.50
2023-02-17T04:38:02.223Z,4.50
2023-02-17T04:40:30.235Z,4.60
2023-02-17T04:42:58.398Z,4.60
2023-02-17T04:45:26.696Z,4.60
2023-02-17T04:47:56.024Z,4.60
2023-02-17T04:50:24.323Z,4.60
2023-02-17T04:52:52.363Z,4.50
2023-02-17T04:55:20.465Z,4.50
2023-02-17T04:57:48.453Z,4.50
2023-02-17T05:00:16.800Z,4.40
2023-02-17T05:02:44.839Z,4.40
2023-02-17T05:05:15.349Z,4.40
2023-02-17T05:07:44.080Z,4.40
2023-02-17T05:10:12.327Z,4.40
2023-02-17T05:12:41.034Z,4.40
2023-02-17T05:15:10.233Z,4.30
2023-02-17T05:17:38.508Z,4.30
2023-02-17T05:20:08.991Z,4.20
2023-02-17T05:22:38.597Z,4.30
2023-02-17T05:25:07.390Z,4.30
2023-02-17T05:27:35.791Z,4.30
2023-02-17T05:30:03.862Z,4.30
2023-02-17T05:32:31.871Z,4.30
2023-02-17T05:34:59.913Z,4.30
2023-02-17T05:37:28.286Z,4.30
2023-02-17T05:39:57.697Z,4.20
2023-02-17T05:42:28.785Z,4.20
2023-02-17T05:44:57.277Z,4.20
2023-02-17T05:47:27.340Z,4.20
2023-02-17T05:49:55.647Z,4.30
2023-02-17T05:52:23.597Z,4.20
2023-02-17T05:54:51.712Z,4.20
2023-02-17T05:57:21.077Z,4.20
2023-02-17T05:59:49.099Z,4.20
2023-02-17T06:02:17.094Z,4.20
2023-02-17T06:04:45.371Z,4.20
2023-02-17T06:07:13.403Z,4.20
2023-02-17T06:09:41.397Z,4.30
2023-02-17T06:12:09.400Z,4.30
2023-02-17T06:14:38.841Z,4.30
2023-02-17T06:17:06.847Z,4.30
2023-02-17T06:19:34.892Z,4.30
2023-02-17T06:22:02.919Z,4.30
2023-02-17T06:24:31.130Z,4.30
2023-02-17T06:26:59.122Z,4.20
2023-02-17T06:29:27.695Z,4.30
2023-02-17T06:31:57.125Z,4.30
2023-02-17T06:34:25.170Z,4.30
2023-02-17T06:36:53.173Z,4.30
2023-02-17T06:39:21.284Z,4.30
2023-02-17T06:41:49.388Z,4.30
2023-02-17T06:44:17.825Z,4.30
2023-02-17T06:46:46.904Z,4.40
2023-02-17T06:49:16.249Z,4.40
2023-02-17T06:51:44.339Z,4.40
2023-02-17T06:54:12.468Z,4.40
2023-02-17T06:56:40.484Z,4.40
2023-02-17T06:59:08.423Z,4.40
2023-02-17T07:01:36.437Z,4.50
2023-02-17T07:04:04.589Z,4.50
2023-02-17T07:06:34.044Z,4.50
2023-02-17T07:09:02.646Z,4.60
2023-02-17T07:11:32.867Z,4.60
2023-02-17T07:14:01.543Z,4.60
2023-02-17T07:16:29.622Z,4.60
2023-02-17T07:18:57.728Z,4.60
2023-02-17T07:21:26.348Z,4.60
2023-02-17T07:23:55.661Z,4.60
2023-02-17T07:26:23.751Z,4.60
2023-02-17T07:28:51.729Z,4.70
2023-02-17T07:31:19.890Z,4.70
2023-02-17T07:33:50.170Z,4.80
2023-02-17T07:36:19.222Z,4.80
2023-02-17T07:38:47.220Z,4.80
2023-02-17T07:41:18.923Z,4.80
2023-02-17T07:43:47.622Z,4.90
2023-02-17T07:46:16.100Z,4.90
2023-02-17T07:48:44.177Z,4.90
2023-02-17T07:51:14.684Z,4.80
2023-02-17T07:53:43.555Z,4.90
2023-02-17T07:56:13.408Z,5.00
2023-02-17T07:58:44.179Z,5.10
2023-02-17T08:01:14.227Z,5.10
2023-02-17T08:03:42.977Z,5.10
2023-02-17T08:06:12.145Z,5.20
2023-02-17T08:08:59.680Z,5.20
2023-02-17T08:11:47.210Z,5.30
2023-02-17T08:14:18.844Z,5.10
2023-02-17T08:16:46.951Z,5.10
2023-02-17T08:19:15.039Z,5.20
2023-02-17T08:21:43.175Z,5.20
2023-02-17T08:24:14.287Z,5.40
2023-02-17T08:26:43.913Z,5.50
2023-02-17T08:29:11.896Z,5.50
2023-02-17T08:31:41.686Z,5.60
2023-02-17T08:34:11.999Z,5.70
2023-02-17T08:36:40.419Z,5.70
2023-02-17T08:39:12.486Z,5.80
2023-02-17T08:41:41.646Z,5.90
2023-02-17T08:44:11.952Z,5.90
2023-02-17T08:46:43.704Z,5.90
2023-02-17T08:49:11.861Z,6.00
2023-02-17T08:51:40.068Z,6.00
2023-02-17T08:54:10.344Z,6.00
2023-02-17T08:56:39.515Z,6.00
2023-02-17T08:59:09.244Z,6.00
2023-02-17T09:01:38.506Z,6.00
2023-02-17T09:04:09.636Z,6.10
2023-02-17T09:06:39.707Z,6.10
2023-02-17T09:09:10.361Z,6.10
2023-02-17T09:11:38.640Z,6.20
2023-02-17T09:14:07.252Z,6.20
2023-02-17T09:16:35.461Z,6.20
2023-02-17T09:19:03.496Z,6.30
2023-02-17T09:21:33.211Z,6.30
2023-02-17T09:24:01.554Z,6.40
2023-02-17T09:26:29.689Z,6.40
2023-02-17T09:28:58.078Z,6.50
2023-02-17T09:31:27.884Z,6.50
2023-02-17T09:33:56.326Z,6.60
2023-02-17T09:36:26.095Z,6.60
2023-02-17T09:38:55.731Z,6.70
2023-02-17T09:41:27.403Z,6.80
2023-02-17T09:43:56.717Z,6.90
2023-02-17T09:46:28.733Z,7.00
2023-02-17T09:49:01.507Z,7.10
2023-02-17T09:51:34.410Z,7.30
2023-02-17T09:54:11.542Z,7.40
2023-02-17T09:56:43.150Z,7.50
2023-02-17T09:59:17.381Z,7.50
2023-02-17T10:01:47.280Z,7.60
2023-02-17T10:04:22.986Z,7.70
2023-02-17T10:07:00.135Z,7.80
2023-02-17T10:09:35.643Z,7.80
2023-02-17T10:12:06.487Z,7.90
2023-02-17T10:14:37.758Z,8.00
2023-02-17T10:17:12.171Z,8.00
2023-02-17T10:19:46.109Z,8.10
2023-02-17T10:22:18.446Z,8.20
2023-02-17T10:24:48.506Z,8.20
2023-02-17T10:27:35.034Z,8.30
2023-02-17T10:30:19.411Z,8.30
2023-02-17T10:33:00.834Z,8.40
2023-02-17T10:35:44.642Z,8.50
2023-02-17T10:38:18.379Z,8.50
2023-02-17T10:40:52.325Z,8.60
2023-02-17T10:43:27.000Z,8.70
2023-02-17T10:45:56.064Z,8.80
2023-02-17T10:48:28.513Z,8.80
2023-02-17T10:51:00.973Z,8.90
2023-02-17T10:53:32.563Z,9.00
2023-02-17T10:56:05.873Z,9.00
2023-02-17T10:58:39.992Z,9.20
2023-02-17T11:01:09.381Z,9.40
2023-02-17T11:03:38.404Z,9.50
2023-02-17T11:06:15.758Z,9.50
2023-02-17T11:08:50.111Z,9.60
2023-02-17T11:11:22.535Z,9.70
2023-02-17T11:14:10.306Z,9.70
2023-02-17T11:16:41.086Z,9.70
2023-02-17T11:19:22.382Z,9.70
2023-02-17T11:21:52.058Z,9.70
2023-02-17T11:24:20.496Z,9.80
2023-02-17T11:26:59.351Z,9.80
2023-02-17T11:29:27.853Z,9.90
2023-02-17T11:31:57.504Z,10.00
2023-02-17T11:34:29.217Z,10.00
2023-02-17T11:37:03.257Z,10.00
2023-02-17T11:39:31.619Z,10.10
2023-02-17T11:42:00.928Z,10.20
2023-02-17T11:44:30.034Z,10.30
2023-02-17T11:47:13.864Z,10.40
2023-02-17T11:50:10.340Z,10.40
2023-02-17T11:53:00.614Z,10.60
2023-02-17T11:55:36.902Z,10.70
2023-02-17T11:58:22.147Z,10.70
2023-02-17T12:00:57.376Z,10.70
2023-02-17T12:03:54.840Z,10.70
2023-02-17T12:06:29.968Z,10.60
2023-02-17T12:09:11.130Z,10.70
2023-02-17T12:11:48.099Z,10.70
2023-02-17T12:14:46.837Z,10.60
2023-02-17T12:17:23.261Z,10.60
2023-02-17T12:19:57.932Z,10.70
2023-02-17T12:22:32.797Z,10.70
2023-02-17T12:25:26.880Z,10.70
2023-02-17T12:28:05.831Z,10.70
2023-02-17T12:30:48.239Z,10.70
2023-02-17T12:33:36.005Z,10.70
2023-02-17T12:36:06.779Z,10.70
2023-02-17T12:38:37.749Z,10.70
2023-02-17T12:41:10.595Z,10.70
2023-02-17T12:43:42.050Z,10.70
2023-02-17T12:46:15.259Z,10.70
2023-02-17T12:48:49.153Z,10.80
2023-02-17T12:51:22.030Z,10.90
2023-02-17T12:53:54.863Z,10.90
2023-02-17T12:56:51.586Z,10.90
2023-02-17T12:59:22.264Z,11.00
2023-02-17T13:01:56.402Z,11.00
2023-02-17T13:04:26.745Z,11.00
2023-02-17T13:07:03.952Z,11.10
2023-02-17T13:09:35.715Z,11.10
2023-02-17T13:12:17.044Z,11.10
2023-02-17T13:14:46.602Z,11.10
2023-02-17T13:17:31.116Z,11.10
2023-02-17T13:20:09.099Z,11.00
2023-02-17T13:22:37.981Z,11.00
2023-02-17T13:25:06.490Z,11.00
2023-02-17T13:27:36.393Z,11.10
2023-02-17T13:30:09.162Z,11.10
2023-02-17T13:32:39.682Z,11.20
2023-02-17T13:35:18.815Z,11.30
2023-02-17T13:37:47.768Z,11.30
2023-02-17T13:40:44.087Z,11.40
2023-02-17T13:43:24.154Z,11.50
2023-02-17T13:45:58.252Z,11.50
2023-02-17T13:48:29.691Z,11.60
2023-02-17T13:50:58.747Z,11.60
2023-02-17T13:53:32.171Z,11.60
2023-02-17T13:56:03.062Z,11.70
2023-02-17T13:58:33.986Z,11.70
2023-02-17T14:01:03.759Z,11.70
2023-02-17T14:03:36.481Z,11.60
2023-02-17T14:06:05.205Z,11.60
2023-02-17T14:08:38.166Z,11.70
2023-02-17T14:11:09.935Z,11.70
2023-02-17T14:13:39.545Z,11.70
2023-02-17T14:16:08.508Z,11.70
2023-02-17T14:18:40.067Z,11.70
2023-02-17T14:21:10.744Z,11.70
2023-02-17T14:23:44.008Z,11.80
2023-02-17T14:26:14.245Z,11.80
2023-02-17T14:28:52.751Z,11.80
2023-02-17T14:31:26.083Z,11.70
2023-02-17T14:33:58.217Z,11.80
2023-02-17T14:36:35.479Z,11.80
2023-02-17T14:39:05.939Z,11.70
2023-02-17T14:41:34.926Z,11.70
2023-02-17T14:44:03.070Z,11.60
2023-02-17T14:46:31.062Z,11.60
2023-02-17T14:49:00.878Z,11.50
2023-02-17T14:51:34.978Z,11.50
2023-02-17T14:54:03.859Z,11.40
2023-02-17T14:56:35.027Z,11.40
2023-02-17T14:59:03.001Z,11.30
2023-02-17T15:01:31.082Z,11.30
2023-02-17T15:04:00.849Z,11.20
2023-02-17T15:06:35.958Z,11.20
2023-02-17T15:09:03.947Z,11.20
2023-02-17T15:11:36.890Z,11.20
2023-02-17T15:14:05.348Z,11.20
2023-02-17T15:16:33.549Z,11.20
2023-02-17T15:19:03.030Z,11.10
2023-02-17T15:21:33.410Z,11.20
2023-02-17T15:24:03.255Z,11.10
2023-02-17T15:26:31.619Z,11.10
2023-02-17T15:29:00.087Z,11.10
2023-02-17T15:31:30.236Z,11.10
2023-02-17T15:33:59.965Z,11.00
2023-02-17T15:36:30.053Z,11.00
2023-02-17T15:38:58.114Z,11.00
2023-02-17T15:41:31.191Z,10.90
2023-02-17T15:43:59.776Z,10.90
2023-02-17T15:46:31.094Z,10.90
2023-02-17T15:48:59.418Z,10.90
2023-02-17T15:51:27.402Z,10.80
2023-02-17T15:53:56.784Z,10.80
2023-02-17T15:56:27.944Z,10.70
2023-02-17T15:58:56.139Z,10.60
2023-02-17T16:01:29.283Z,10.60
2023-02-17T16:03:58.395Z,10.60
2023-02-17T16:06:26.663Z,10.50
2023-02-17T16:08:58.828Z,10.50
2023-02-17T16:11:28.547Z,10.40
2023-02-17T16:13:56.575Z,10.40
2023-02-17T16:16:28.666Z,10.40
2023-02-17T16:18:57.013Z,10.40
2023-02-17T16:21:24.994Z,10.40
2023-02-17T16:23:59.015Z,10.30
2023-02-17T16:26:32.817Z,10.30
2023-02-17T16:29:02.545Z,10.30
2023-02-17T16:31:32.731Z,10.30
2023-02-17T16:34:00.789Z,10.20
2023-02-17T16:36:33.303Z,10.20
2023-02-17T16:39:03.744Z,10.20
2023-02-17T16:41:33.056Z,10.10
2023-02-17T16:44:01.110Z,10.10
2023-02-17T16:46:31.782Z,10.10
2023-02-17T16:49:01.254Z,10.10
2023-02-17T16:51:29.285Z,10.00
2023-02-17T16:53:57.324Z,10.00
2023-02-17T16:56:31.066Z,10.00
2023-02-17T16:59:00.393Z,10.00
2023-02-17T17:01:28.467Z,9.90
2023-02-17T17:03:56.566Z,9.80
2023-02-17T17:06:27.026Z,9.80
2023-02-17T17:08:55.338Z,9.80
2023-02-17T17:11:25.963Z,9.80
2023-02-17T17:13:54.140Z,9.70
2023-02-17T17:16:26.897Z,9.70
2023-02-17T17:18:54.936Z,9.70
2023-02-17T17:21:22.926Z,9.70
2023-02-17T17:23:51.729Z,9.60
2023-02-17T17:26:25.712Z,9.60
2023-02-17T17:28:54.453Z,9.60
2023-02-17T17:31:24.100Z,9.50
2023-02-17T17:33:53.465Z,9.50
2023-02-17T17:36:25.163Z,9.50
2023-02-17T17:38:54.248Z,9.40
2023-02-17T17:41:22.707Z,9.30
2023-02-17T17:43:51.755Z,9.30
2023-02-17T17:46:21.454Z,9.30
2023-02-17T17:48:51.444Z,9.30
2023-02-17T17:51:22.016Z,9.30
2023-02-17T17:53:51.148Z,9.30
2023-02-17T17:56:21.733Z,9.30
2023-02-17T17:58:50.095Z,9.20
2023-02-17T18:01:19.350Z,9.20
2023-02-17T18:03:48.279Z,9.10
2023-02-17T18:06:22.495Z,9.10
2023-02-17T18:08:51.459Z,9.00
2023-02-17T18:11:22.812Z,9.00
2023-02-17T18:13:53.493Z,9.00
2023-02-17T18:16:24.137Z,8.90
2023-02-17T18:18:52.497Z,8.90
2023-02-17T18:21:21.924Z,8.80
2023-02-17T18:23:50.070Z,8.80
2023-02-17T18:26:18.640Z,8.80
2023-02-17T18:28:46.970Z,8.80
2023-02-17T18:31:17.490Z,8.70
2023-02-17T18:33:45.521Z,8.70
2023-02-17T18:36:16.309Z,8.70
2023-02-17T18:38:45.868Z,8.70
2023-02-17T18:41:19.170Z,8.60
2023-02-17T18:43:47.871Z,8.60
2023-02-17T18:46:16.001Z,8.60
2023-02-17T18:48:44.233Z,8.70
2023-02-17T18:51:15.385Z,8.60
2023-02-17T18:53:44.963Z,8.60
2023-02-17T18:56:13.945Z,8.50
2023-02-17T18:58:42.348Z,8.50
2023-02-17T19:01:16.454Z,8.40
2023-02-17T19:03:44.824Z,8.30
2023-02-17T19:06:17.426Z,8.30
2023-02-17T19:08:48.127Z,8.20
2023-02-17T19:11:16.973Z,8.20
2023-02-17T19:13:45.409Z,8.20
2023-02-17T19:16:15.731Z,8.20
2023-02-17T19:18:44.883Z,8.10
2023-02-17T19:21:13.191Z,8.10
2023-02-17T19:23:41.735Z,8.10
2023-02-17T19:26:12.854Z,8.00
2023-02-17T19:28:41.887Z,7.90
2023-02-17T19:31:11.758Z,7.90
2023-02-17T19:33:40.245Z,7.90
2023-02-17T19:36:09.949Z,7.90
2023-02-17T19:38:38.415Z,7.90
2023-02-17T19:41:08.784Z,7.90
2023-02-17T19:43:38.921Z,7.90
2023-02-17T19:46:07.379Z,7.90
2023-02-17T19:48:35.796Z,7.90
2023-02-17T19:51:06.652Z,7.90
2023-02-17T19:53:35.821Z,7.90
2023-02-17T19:56:12.384Z,7.80
2023-02-17T19:58:43.073Z,7.80
2023-02-17T20:01:15.231Z,7.80
2023-02-17T20:03:43.681Z,7.80
2023-02-17T20:06:13.752Z,7.70
2023-02-17T20:08:41.778Z,7.70
2023-02-17T20:11:11.248Z,7.70
2023-02-17T20:13:46.148Z,7.70
2023-02-17T20:16:16.508Z,7.70
2023-02-17T20:18:46.389Z,7.70
2023-02-17T20:21:16.299Z,7.70
2023-02-17T20:23:44.612Z,7.70
2023-02-17T20:26:15.381Z,7.60
2023-02-17T20:28:45.359Z,7.50
2023-02-17T20:31:13.952Z,7.50
2023-02-17T20:33:42.143Z,7.50
2023-02-17T20:36:11.221Z,7.40
2023-02-17T20:38:39.377Z,7.40
2023-02-17T20:41:09.829Z,7.40
2023-02-17T20:43:38.849Z,7.40
2023-02-17T20:46:08.861Z,7.50
2023-02-17T20:48:36.982Z,7.40
2023-02-17T20:51:05.796Z,7.30
2023-02-17T20:53:33.965Z,7.30
2023-02-17T20:56:01.979Z,7.30
2023-02-17T20:58:29.986Z,7.20
2023-02-17T21:00:58.033Z,7.20
2023-02-17T21:03:27.359Z,7.30
2023-02-17T21:05:55.478Z,7.20
2023-02-17T21:08:23.460Z,7.20
2023-02-17T21:10:51.415Z,7.20
2023-02-17T21:13:19.851Z,7.20
2023-02-17T21:15:48.375Z,7.10
2023-02-17T21:18:17.073Z,7.10
2023-02-17T21:20:46.668Z,6.90
2023-02-17T21:23:15.001Z,6.90
2023-02-17T21:25:46.272Z,6.90
2023-02-17T21:28:17.223Z,7.00
2023-02-17T21:30:47.355Z,7.00
2023-02-17T21:33:15.380Z,6.80
2023-02-17T21:35:43.433Z,6.90
2023-02-17T21:38:15.456Z,6.90
2023-02-17T21:40:43.448Z,7.00
2023-02-17T21:43:30.019Z,7.00
2023-02-17T21:45:58.239Z,6.90
2023-02-17T21:48:26.311Z,6.80
2023-02-17T21:50:54.356Z,6.80
2023-02-17T21:53:23.667Z,6.80
2023-02-17T21:55:51.670Z,6.80
2023-02-17T21:58:19.769Z,6.80
2023-02-17T22:00:49.732Z,6.80
2023-02-17T22:03:17.725Z,6.80
2023-02-17T22:05:45.899Z,6.80
2023-02-17T22:08:14.131Z,6.80
2023-02-17T22:10:45.441Z,6.80
2023-02-17T22:13:13.472Z,6.70
2023-02-17T22:15:41.671Z,6.70
2023-02-17T22:18:09.685Z,6.60
2023-02-17T22:20:38.038Z,6.60
2023-02-17T22:23:06.033Z,6.60
2023-02-17T22:25:35.315Z,6.60
2023-02-17T22:28:04.712Z,6.60
2023-02-17T22:30:32.720Z,6.60
2023-02-17T22:33:00.803Z,6.70
2023-02-17T22:35:28.752Z,6.70
2023-02-17T22:37:57.566Z,6.70
2023-02-17T22:40:25.551Z,6.70
2023-02-17T22:42:53.592Z,6.60
2023-02-17T22:45:22.968Z,6.60
2023-02-17T22:47:53.130Z,6.50
2023-02-17T22:50:21.094Z,6.50
2023-02-17T22:52:49.168Z,6.50
2023-02-17T22:55:17.297Z,6.50
2023-02-17T22:57:47.307Z,6.50
2023-02-17T23:00:16.689Z,6.50
2023-02-17T23:02:46.062Z,6.50
2023-02-17T23:05:14.170Z,6.50
2023-02-17T23:07:42.200Z,6.40
2023-02-17T23:10:10.657Z,6.40
2023-02-17T23:12:38.630Z,6.30
2023-02-17T23:15:06.962Z,6.30
2023-02-17T23:17:54.904Z,6.30
2023-02-17T23:20:25.466Z,6.20
2023-02-17T23:22:53.545Z,6.20
2023-02-17T23:25:21.531Z,6.30
2023-02-17T23:27:49.537Z,6.30
2023-02-17T23:30:21.054Z,6.30
2023-02-17T23:32:49.045Z,6.20
2023-02-17T23:35:17.129Z,6.20
2023-02-17T23:37:46.572Z,6.20
2023-02-17T23:40:15.607Z,6.20
2023-02-17T23:42:43.922Z,6.20
2023-02-17T23:45:12.599Z,6.20
2023-02-17T23:47:40.571Z,6.20
2023-02-17T23:50:09.675Z,6.20
2023-02-17T23:52:37.679Z,6.10
2023-02-17T23:55:07.885Z,6.10
2023-02-17T23:57:39.348Z,6.10
